createdAt,value
2022-12-26T00:00:02.101Z,94.44
2022-12-26T00:05:01.398Z,94.39
2022-12-26T00:10:01.919Z,94.39
2022-12-26T00:20:01.434Z,94.53
2022-12-26T00:25:01.546Z,95.26
2022-12-26T00:30:02.053Z,95.54
2022-12-26T00:35:02.221Z,95.65
2022-12-26T00:40:02.058Z,95.58
2022-12-26T00:45:02.127Z,95.7
2022-12-26T00:50:12.952Z,95.45
2022-12-26T00:55:02.085Z,95.31
2022-12-26T01:00:02.280Z,95.28
2022-12-26T01:05:01.957Z,95.05
2022-12-26T01:10:01.484Z,94.79
2022-12-26T01:15:01.907Z,95.07
2022-12-26T01:20:02.016Z,95.18
2022-12-26T01:25:01.505Z,94.88
2022-12-26T01:30:02.282Z,94.31
2022-12-26T01:35:02.150Z,94.09
2022-12-26T01:40:01.674Z,94.27
2022-12-26T01:45:02.083Z,94.53
2022-12-26T01:50:01.300Z,94.38
2022-12-26T01:55:02.138Z,94.49
2022-12-26T02:00:02.279Z,94.88
2022-12-26T02:05:01.540Z,94.93
2022-12-26T02:10:02.194Z,94.36
2022-12-26T02:15:01.321Z,94.64
2022-12-26T02:20:01.841Z,94.16
2022-12-26T02:25:01.877Z,94.3
2022-12-26T02:30:01.806Z,94.54
2022-12-26T02:35:02.159Z,94.56
2022-12-26T02:40:02.120Z,95.02
2022-12-26T02:45:01.783Z,94.74
2022-12-26T02:50:02.214Z,95.96
2022-12-26T02:55:02.065Z,96.69
2022-12-26T03:00:01.960Z,96.42
2022-12-26T03:05:01.283Z,96.03
2022-12-26T03:10:02.187Z,95.63
2022-12-26T03:15:01.356Z,95.43
2022-12-26T03:20:02.020Z,94.59
2022-12-26T03:25:02.004Z,94.48
2022-12-26T03:30:02.222Z,94.12
2022-12-26T03:35:01.649Z,94.16
2022-12-26T03:40:02.036Z,93.99
2022-12-26T03:45:02.284Z,94.67
2022-12-26T03:50:01.536Z,94.8
2022-12-26T03:55:02.235Z,94.8
2022-12-26T04:00:01.562Z,95.02
2022-12-26T04:05:02.017Z,95.09
2022-12-26T04:10:02.225Z,95.57
2022-12-26T04:15:01.650Z,95.58
2022-12-26T04:20:02.196Z,95.44
2022-12-26T04:25:02.118Z,95.76
2022-12-26T04:30:01.608Z,95.44
2022-12-26T04:35:02.317Z,95.39
2022-12-26T04:40:01.984Z,95.42
2022-12-26T04:45:01.559Z,94.89
2022-12-26T04:50:02.063Z,94.64
2022-12-26T04:55:02.209Z,94.61
2022-12-26T05:00:01.747Z,94.8
2022-12-26T05:05:02.290Z,94.7
2022-12-26T05:10:01.336Z,95.38
2022-12-26T05:15:02.041Z,96.59
2022-12-26T05:20:01.693Z,97.78
2022-12-26T05:25:02.243Z,98.04
2022-12-26T05:30:01.596Z,97.86
2022-12-26T05:35:02.253Z,98.63
2022-12-26T05:40:01.747Z,97.92
2022-12-26T05:45:02.235Z,98.24
2022-12-26T05:50:01.831Z,98.57
2022-12-26T05:55:01.715Z,98.39
2022-12-26T06:00:02.185Z,98.4
2022-12-26T06:05:01.939Z,98.45
2022-12-26T06:10:02.158Z,98.56
2022-12-26T06:15:02.043Z,98.98
2022-12-26T06:20:01.421Z,99.26
2022-12-26T06:25:02.036Z,99.01
2022-12-26T06:30:02.047Z,99.53
2022-12-26T06:35:01.490Z,98.26
2022-12-26T06:40:01.762Z,100.21
2022-12-26T06:45:01.892Z,98.89
2022-12-26T06:50:01.958Z,99.19
2022-12-26T06:55:01.344Z,98.44
2022-12-26T07:00:02.113Z,98.56
2022-12-26T07:05:02.077Z,98.15
2022-12-26T07:10:01.429Z,98.14
2022-12-26T07:15:02.400Z,98.23
2022-12-26T07:20:02.170Z,98.24
2022-12-26T07:25:02.139Z,98.27
2022-12-26T07:30:02.121Z,98.69
2022-12-26T07:35:02.236Z,98.69
2022-12-26T07:40:02.015Z,98.53
2022-12-26T07:45:02.165Z,98.42
2022-12-26T07:50:02.121Z,98.59
2022-12-26T07:55:02.098Z,98.63
2022-12-26T08:00:01.360Z,98.53
2022-12-26T08:05:01.654Z,98.53
2022-12-26T08:10:01.969Z,98.79
2022-12-26T08:15:01.939Z,98.7
2022-12-26T08:20:02.244Z,98.94
2022-12-26T08:25:01.446Z,98.79
2022-12-26T08:30:01.818Z,98.75
2022-12-26T08:35:01.664Z,98.72
2022-12-26T08:40:02.361Z,98.74
2022-12-26T08:45:01.702Z,98.53
2022-12-26T08:50:02.142Z,98.44
2022-12-26T08:55:02.171Z,97.15
2022-12-26T09:00:01.403Z,98.34
2022-12-26T09:05:02.171Z,98.43
2022-12-26T09:10:01.443Z,96.72
2022-12-26T09:15:01.912Z,98.83
2022-12-26T09:20:02.158Z,98.05
2022-12-26T09:25:01.781Z,98.93
2022-12-26T09:30:02.293Z,96.47
2022-12-26T09:35:02.201Z,97.24
2022-12-26T09:40:02.149Z,96.42
2022-12-26T09:45:02.039Z,95.84
2022-12-26T09:50:01.308Z,96.41
2022-12-26T09:55:01.795Z,95.47
2022-12-26T10:00:01.736Z,94.93
2022-12-26T10:05:02.216Z,93.85
2022-12-26T10:10:02.289Z,94.29
2022-12-26T10:15:02.162Z,92.52
2022-12-26T10:20:01.452Z,90.58
2022-12-26T10:25:01.945Z,90.5
2022-12-26T10:30:02.237Z,89.59
2022-12-26T10:35:01.518Z,88.29
2022-12-26T10:40:02.194Z,88.8
2022-12-26T10:45:01.583Z,87.33
2022-12-26T10:50:02.016Z,87.3
2022-12-26T10:55:28.492Z,86.92
2022-12-26T11:00:01.637Z,85.52
2022-12-26T11:05:33.220Z,85.92
2022-12-26T11:10:02.037Z,84.24
2022-12-26T11:15:01.790Z,83.69
2022-12-26T11:20:02.084Z,82.78
2022-12-26T11:25:01.547Z,82.85
2022-12-26T11:30:02.188Z,83.54
2022-12-26T11:35:01.527Z,84.12
2022-12-26T11:40:02.163Z,82.75
2022-12-26T11:45:01.990Z,82.99
2022-12-26T11:50:02.011Z,83.09
2022-12-26T11:55:01.643Z,84.16
2022-12-26T12:00:01.995Z,84.89
2022-12-26T12:05:02.085Z,84.7
2022-12-26T12:10:01.744Z,85.19
2022-12-26T12:15:02.153Z,86.25
2022-12-26T12:20:02.090Z,85.62
2022-12-26T12:25:01.720Z,86.18
2022-12-26T12:30:01.803Z,85.51
2022-12-26T12:35:02.126Z,86.3
2022-12-26T12:40:02.136Z,86.68
2022-12-26T12:45:02.036Z,87.52
2022-12-26T12:50:01.975Z,87.32
2022-12-26T12:55:01.597Z,87.32
2022-12-26T13:00:01.289Z,86.91
2022-12-26T13:05:02.236Z,86.59
2022-12-26T13:10:01.790Z,86.64
2022-12-26T13:15:02.030Z,87.16
2022-12-26T13:20:03.055Z,87.4
2022-12-26T13:25:01.434Z,87.88
2022-12-26T13:30:01.409Z,88.3
2022-12-26T13:35:01.929Z,88.69
2022-12-26T13:40:01.549Z,88.63
2022-12-26T13:45:01.989Z,89.13
2022-12-26T13:50:02.137Z,89.55
2022-12-26T13:55:01.947Z,89.39
2022-12-26T14:00:02.179Z,90.04
2022-12-26T14:05:01.466Z,90.68
2022-12-26T14:10:02.090Z,92.15
2022-12-26T14:15:02.222Z,95.89
2022-12-26T14:20:01.465Z,97.92
2022-12-26T14:25:02.332Z,97.24
2022-12-26T14:30:02.045Z,98.41
2022-12-26T14:35:01.429Z,98.53
2022-12-26T14:40:01.775Z,98.63
2022-12-26T14:45:02.117Z,98.63
2022-12-26T14:50:01.666Z,99.73
2022-12-26T14:55:02.066Z,100.04
2022-12-26T15:00:03.855Z,99.98
2022-12-26T15:05:01.933Z,100.05
2022-12-26T15:10:02.236Z,100.5
2022-12-26T15:15:01.396Z,100.59
2022-12-26T15:20:02.163Z,100.65
2022-12-26T15:25:18.770Z,100.66
2022-12-26T15:30:02.111Z,100.24
2022-12-26T15:35:02.005Z,100.06
2022-12-26T15:40:02.373Z,100.22
2022-12-26T15:45:01.478Z,99.98
2022-12-26T15:50:02.188Z,100.1
2022-12-26T15:55:01.533Z,99.82
2022-12-26T16:00:02.326Z,99.88
2022-12-26T16:05:01.733Z,100.03
2022-12-26T16:10:02.128Z,100.2
2022-12-26T16:15:01.627Z,99.79
2022-12-26T16:20:01.550Z,99.63
2022-12-26T16:25:02.259Z,98.98
2022-12-26T16:30:06.578Z,99.18
2022-12-26T16:35:01.601Z,99.18
2022-12-26T16:40:01.591Z,100.03
2022-12-26T16:45:01.331Z,100.03
2022-12-26T16:50:02.182Z,99.32
2022-12-26T16:55:01.943Z,99.32
2022-12-26T17:00:01.623Z,99
2022-12-26T17:05:01.670Z,98.02
2022-12-26T17:10:01.633Z,98.37
2022-12-26T17:15:02.241Z,97.37
2022-12-26T17:20:01.961Z,97.78
2022-12-26T17:25:01.827Z,97.69
2022-12-26T17:30:01.547Z,96.36
2022-12-26T17:35:01.373Z,95.74
2022-12-26T17:40:03.319Z,97.54
2022-12-26T17:45:01.792Z,93.75
2022-12-26T17:50:02.039Z,92.19
2022-12-26T17:55:01.750Z,90.83
2022-12-26T18:00:01.629Z,90.21
2022-12-26T18:05:01.320Z,91.07
2022-12-26T18:10:02.028Z,92.37
2022-12-26T18:15:02.584Z,92.91
2022-12-26T18:20:02.100Z,93.21
2022-12-26T18:25:01.925Z,93.21
2022-12-26T18:30:01.599Z,94.28
2022-12-26T18:35:02.221Z,94.87
2022-12-26T18:40:01.382Z,95.8
2022-12-26T18:45:02.113Z,96.62
2022-12-26T18:50:02.109Z,96.87
2022-12-26T18:55:01.589Z,96.05
2022-12-26T19:00:02.209Z,95.25
2022-12-26T19:05:01.576Z,95.44
2022-12-26T19:10:01.519Z,95.21
2022-12-26T19:15:02.193Z,95.92
2022-12-26T19:20:01.658Z,95.59
2022-12-26T19:25:01.681Z,95.74
2022-12-26T19:30:01.741Z,96.47
2022-12-26T19:35:01.310Z,96.46
2022-12-26T19:40:01.817Z,97.35
2022-12-26T19:45:01.658Z,97.34
2022-12-26T19:50:01.508Z,96.81
2022-12-26T19:55:02.004Z,96.6
2022-12-26T20:00:01.873Z,96.19
2022-12-26T20:05:01.503Z,95.89
2022-12-26T20:10:01.825Z,95.68
2022-12-26T20:15:02.168Z,96.23
2022-12-26T20:20:01.618Z,96.28
2022-12-26T20:25:01.753Z,96.33
2022-12-26T20:30:02.056Z,96.82
2022-12-26T20:35:02.039Z,96.41
2022-12-26T20:40:01.454Z,96.86
2022-12-26T20:45:01.318Z,97.22
2022-12-26T20:50:01.751Z,96.72
2022-12-26T20:55:01.471Z,95.86
2022-12-26T21:00:01.869Z,95.75
2022-12-26T21:05:01.866Z,96.1
2022-12-26T21:10:01.535Z,95.99
2022-12-26T21:15:01.477Z,96.04
2022-12-26T21:20:01.813Z,96.96
2022-12-26T21:25:01.545Z,97.09
2022-12-26T21:30:01.481Z,96.92
2022-12-26T21:35:01.852Z,96.98
2022-12-26T21:40:01.660Z,97.3
2022-12-26T21:45:01.472Z,97.35
2022-12-26T21:50:01.912Z,97.24
2022-12-26T21:55:02.202Z,97.12
2022-12-26T22:00:02.019Z,96.47
2022-12-26T22:05:01.290Z,96.54
2022-12-26T22:10:01.931Z,96.26
2022-12-26T22:15:01.299Z,96.57
2022-12-26T22:20:01.908Z,96.61
2022-12-26T22:25:01.312Z,96.54
2022-12-26T22:30:01.794Z,96.76
2022-12-26T22:35:01.638Z,96.88
2022-12-26T22:40:02.146Z,97.01
2022-12-26T22:45:01.568Z,97.1
2022-12-26T22:50:02.124Z,97.14
2022-12-26T22:55:01.974Z,96.98
2022-12-26T23:00:09.725Z,97.39
2022-12-26T23:05:01.690Z,97.36
2022-12-26T23:10:01.584Z,97.38
2022-12-26T23:15:02.283Z,97.35
2022-12-26T23:20:01.935Z,97.45
2022-12-26T23:25:01.925Z,97.5
2022-12-26T23:30:02.252Z,97.51
2022-12-26T23:35:02.089Z,97.49
2022-12-26T23:40:02.227Z,97.22
2022-12-26T23:45:01.361Z,97.45
2022-12-26T23:50:01.848Z,96.95
2022-12-26T23:55:01.928Z,97.56
